ADDS METAR Data INFO
IDs: Format: Raw Decoded Include TAF

Data at: 0456 UTC 23 May 2017

KMAF 230453Z AUTO 18012KT 10SM CLR 18/12 A2993 RMK AO2 WSHFT 0438 SLP103 T01780122
KMAF 230353Z 03009KT 10SM FEW090 FEW110 18/13 A2994 RMK AO2 LTG DSNT SE RAE39 TSE07 SLP108 P0005 T01780128
KMAF 230349Z 03004KT 10SM FEW080 FEW090 SCT110 18/12 A2994 RMK AO2 LTG DSNT E AND SE RAE39 TSE07 P0005
KMAF 230313Z 19009KT 5SM VCTS -RA BKN065 OVC080 17/13 A3002 RMK AO2 LTG DSNT ALQDS TSE07 PRESFR P0003 T01670128
KMAF 230253Z 32007KT 5SM TSRA FEW032 BKN055 OVC080 17/12 A3008 RMK AO2 PK WND 31040/0231 LTG DSNT ALQDS RAB20 TSB34 SLP155 P0015 60015 T01670117 53041
KMAF 230240Z 31023G40KT 2 1/2SM +TSRA SCT033 BKN044 OVC085 16/12 A3009 RMK AO2 PK WND 31040/0231 VIS 1 3/4V4 LTG DSNT ALQDS RAB20 TSB34 PRESRR P0010 T01610122
KMAF 230222Z 29009KT 9SM VCTS -RA FEW065 BKN085 OVC120 23/16 A3003 RMK AO2 LTG DSNT W-NE RAB20 PRESRR P0000 T02280161
KMAF 230153Z 16004KT 10SM FEW120 23/15 A2997 RMK AO2 LTG DSNT W-N SLP112 T02330150
KMAF 230053Z AUTO 08007KT 10SM FEW047 24/14 A2994 RMK AO2 SLP103 T02390139
KMAF 222353Z AUTO 10004KT 10SM CLR 24/14 A2994 RMK AO2 SLP104 T02390144 10256 20178 55009
KMAF 222253Z 10006KT 10SM CLR 24/14 A2993 RMK AO2 SLP098 T02440144
KMAF 222153Z 10SM CLR 24/13 A2994 RMK AO2 SLP102 T02440133
KMAF 222053Z VRB03KT 10SM FEW028 24/14 A2997 RMK AO2 SLP113 T02390139 56018
KMAF 222048Z VRB03KT 10SM SCT028 24/14 A2997 RMK AO2
KMAF 221953Z 00000KT 10SM OVC026 22/14 A3001 RMK AO2 SLP127 T02220144
KMAF 221903Z 23003KT 10SM OVC018 21/14 A3003 RMK AO2 T02110144
KMAF 221853Z 22003KT 10SM OVC008 21/14 A3003 RMK AO2 SLP137 T02060144
KMAF 221753Z VRB03KT 9SM OVC008 18/14 A3005 RMK AO2 SLP145 T01780144 10183 20150 57014
KMAF 221653Z 12006KT 4SM HZ OVC006 17/14 A3006 RMK AO2 SLP150 T01670139
KMAF 221553Z 10008KT 6SM BR OVC005 16/14 A3008 RMK AO2 SLP156 T01610139
KMAF 221526Z 09009KT 4SM BR OVC005 16/14 A3008 RMK AO2 T01610139
KMAF 221504Z 08007KT 2SM BR OVC005 16/14 A3009 RMK AO2 T01610139
KMAF 221453Z 09007KT 4SM BR OVC005 16/14 A3009 RMK AO2 SLP159 T01610139 53003
KMAF 221353Z 07006KT 4SM BR OVC005 16/14 A3009 RMK AO2 SLP160 T01560139
KMAF 221316Z AUTO 08003KT 9SM OVC005 16/13 A3009 RMK AO2 T01560133
KMAF 221253Z AUTO 08005KT 8SM OVC004 16/13 A3008 RMK AO2 SLP153 T01560133
KMAF 221224Z AUTO 12007KT 3SM BR OVC004 15/13 A3007 RMK AO2 T01500133
KMAF 221217Z AUTO 12006KT 2 1/2SM BR OVC004 15/13 A3007 RMK AO2 T01500133
KMAF 221208Z AUTO 11007KT 3SM BR OVC004 15/13 A3008 RMK AO2 T01500133
KMAF 221153Z AUTO 12007KT 4SM BR OVC005 15/13 A3008 RMK AO2 SLP154 T01500133 10161 20144 56007
KMAF 221053Z AUTO 11009KT 10SM OVC007 15/12 A3008 RMK AO2 SLP156 T01500122
KMAF 220953Z AUTO 13012KT 10SM OVC007 15/12 A3008 RMK AO2 SLP155 T01500122
KMAF 220853Z AUTO 10011KT 10SM OVC009 16/12 A3010 RMK AO2 CIG 008V012 SLP162 T01560122 58004
KMAF 220835Z AUTO 12010KT 10SM OVC009 16/13 A3011 RMK AO2 T01560128
KMAF 220753Z AUTO 12008KT 10SM OVC010 16/13 A3011 RMK AO2 SLP163 T01560128
KMAF 220721Z AUTO 12011KT 10SM OVC010 16/13 A3012 RMK AO2 T01560128
KMAF 220653Z AUTO 11007KT 10SM BKN008 OVC012 15/13 A3012 RMK AO2 SLP169 T01500128
KMAF 220632Z AUTO 10008KT 10SM BKN009 14/13 A3012 RMK AO2 T01440128
KMAF 220624Z AUTO 11007KT 10SM SCT009 14/12 A3012 RMK AO2 T01440122
KMAF 220553Z AUTO 11005KT 10SM CLR 14/12 A3011 RMK AO2 SLP167 T01440122 10200 20144 402170144 50004
KMAF 220453Z 12009KT 10SM FEW016 15/12 A3013 RMK AO2 SLP170 T01500117
KMAF 220353Z 11006KT 10SM CLR 16/12 A3013 RMK AO2 SLP169 T01560122
KMAF 220253Z 10009KT 10SM CLR 17/12 A3010 RMK AO2 SLP160 T01670122 53006
KMAF 220153Z 09008KT 10SM CLR 18/13 A3008 RMK AO2 SLP152 T01780128
KMAF 220053Z 08008KT 10SM CLR 19/13 A3007 RMK AO2 SLP150 T01940128
KMAF 212353Z 12009KT 10SM FEW019 20/13 A3008 RMK AO2 SLP153 60000 T02000133 10211 20189 58010
KMAF 212253Z 12015KT 10SM BKN110 19/12 A3010 RMK AO2 SLP158 T01890122
KMAF 212153Z 11017G22KT 10SM SCT024 21/12 A3011 RMK AO2 SLP160 T02110117
KMAF 212053Z 11013KT 10SM FEW034 BKN110 19/09 A3012 RMK AO2 LTG DSNT N SLP164 60000 T01940094 58001
KMAF 211953Z 10015G22KT 10SM FEW044 FEW065 OVC090 20/11 A3012 RMK AO2 LTG DSNT NW RAB04E44 SLP164 P0000 T02000106
KMAF 211937Z 11018KT 10SM -RA SCT034 BKN046 OVC100 19/11 A3012 RMK AO2 LTG DSNT NW RAB04 P0000 T01890111
KMAF 211902Z 14016KT 10SM VCTS OVC030 20/09 A3016 RMK AO2 LTG DSNT S-NW T02000094
KMAF 211853Z 12015KT 10SM OVC028 20/09 A3015 RMK AO2 LTG DSNT S AND SW RAE25 SLP176 P0000 T02000094
KMAF 211828Z 12015KT 10SM BKN026 20/10 A3013 RMK AO2 LTG DSNT ALQDS RAE25 P0000 T02000100
KMAF 211753Z 08016G24KT 10SM -RA SCT028 BKN038 20/10 A3012 RMK AO2 PK WND 09028/1729 LTG DSNT SW AND W RAB43 PRESFR SLP164 P0000 60000 T02000100 10217 20178 58013
KMAF 211748Z 10020G24KT 10SM -RA BKN028 BKN040 20/11 A3013 RMK AO2 PK WND 09028/1729 LTG DSNT SW AND W RAB43 P0000
KMAF 211738Z 09018G28KT 10SM OVC030 21/11 A3014 RMK AO2 PK WND 09028/1729 LTG DSNT SW T02060106


Page loaded:  04:56 UTC  |   09:56 PM Pacific  |   10:56 PM Mountain  |   11:56 PM Central  |   12:56 AM Eastern

 

ADVISORIES

FORECASTS

FORECASTS

OBSERVATIONS

USER TOOLS

ABOUT US